Time;durP1;ratioP1;P1;durP2;ratioP2;P2;SDS_P1;SDS_P2;PMS_P1;PMS_P2;Temp;Humidity;BMP_temperature;BMP_pressure;BME280_temperature;BME280_humidity;BME280_pressure;Samples;Min_cycle;Max_cycle;Signal;HPM_P1;HPM_P2
2022/03/12 00:00:07;;;;;;;50.00;15.33;;;3.60;13.20;;;;;;5008715;28;20984;-66
2022/03/12 00:02:34;;;;;;;48.63;13.17;;;3.60;13.40;;;;;;5007220;28;20483;-66
2022/03/12 00:05:07;;;;;;;51.70;15.50;;;3.50;13.60;;;;;;5008734;28;20562;-66
2022/03/12 00:07:35;;;;;;;54.10;13.47;;;3.50;13.70;;;;;;5008825;28;20894;-66
2022/03/12 00:10:02;;;;;;;50.33;13.23;;;3.50;14.00;;;;;;5008100;28;21015;-66
2022/03/12 00:12:34;;;;;;;48.13;12.07;;;3.40;13.90;;;;;;5006824;28;20464;-66
2022/03/12 00:15:09;;;;;;;47.17;14.40;;;3.40;13.90;;;;;;5008206;28;20512;-66
2022/03/12 00:17:36;;;;;;;48.90;12.93;;;3.30;13.90;;;;;;5008189;28;20460;-66
2022/03/12 00:20:04;;;;;;;52.17;13.20;;;3.30;13.90;;;;;;5008977;28;20464;-66
2022/03/12 00:22:31;;;;;;;48.60;13.33;;;3.30;14.20;;;;;;5007228;28;20837;-66
2022/03/12 00:24:58;;;;;;;47.37;14.07;;;3.30;14.20;;;;;;5006703;28;20854;-66
2022/03/12 00:27:24;;;;;;;45.63;13.50;;;3.30;14.30;;;;;;5008044;28;20538;-66
2022/03/12 00:29:52;;;;;;;47.53;12.60;;;3.20;14.40;;;;;;5008592;28;20459;-67
2022/03/12 00:32:20;;;;;;;49.10;13.83;;;3.20;14.50;;;;;;5005819;28;20476;-66
2022/03/12 00:34:47;;;;;;;47.40;13.20;;;3.40;14.50;;;;;;5008161;28;20484;-66
2022/03/12 00:37:14;;;;;;;48.33;12.33;;;3.20;14.60;;;;;;5008449;28;20458;-66
2022/03/12 00:39:44;;;;;;;48.50;12.80;;;3.20;14.60;;;;;;5008391;28;20475;-66
2022/03/12 00:42:12;;;;;;;45.77;13.37;;;3.20;14.60;;;;;;5006324;28;20473;-66
2022/03/12 00:44:39;;;;;;;45.23;12.30;;;3.10;14.70;;;;;;5007272;28;20480;-66
2022/03/12 00:47:06;;;;;;;47.17;12.80;;;3.10;14.80;;;;;;5008569;28;20540;-66
2022/03/12 00:49:34;;;;;;;49.03;12.40;;;3.10;14.90;;;;;;5008452;28;20463;-66
2022/03/12 00:52:01;;;;;;;45.73;13.07;;;3.10;15.10;;;;;;5007988;28;20543;-66
2022/03/12 00:54:28;;;;;;;46.90;13.87;;;3.10;15.00;;;;;;5006737;28;20491;-66
2022/03/12 00:56:55;;;;;;;48.03;12.43;;;3.00;15.10;;;;;;5007683;28;20463;-66
2022/03/12 00:59:22;;;;;;;48.07;11.97;;;3.00;15.10;;;;;;5007830;28;20837;-66
2022/03/12 01:01:49;;;;;;;46.37;12.33;;;3.00;15.10;;;;;;5006781;28;20468;-66
2022/03/12 01:04:16;;;;;;;45.90;11.87;;;3.00;15.10;;;;;;5006496;28;20480;-66
2022/03/12 01:06:46;;;;;;;46.20;12.13;;;3.00;15.10;;;;;;5007999;28;20656;-66
2022/03/12 01:09:13;;;;;;;47.43;13.10;;;3.00;15.10;;;;;;5006894;28;20463;-66
2022/03/12 01:11:42;;;;;;;44.07;11.63;;;3.00;15.00;;;;;;5007828;28;20519;-65
2022/03/12 01:14:09;;;;;;;44.90;10.80;;;3.00;15.00;;;;;;5006541;28;20488;-66
2022/03/12 01:16:36;;;;;;;44.67;11.00;;;3.00;14.90;;;;;;5008079;28;20459;-66
2022/03/12 01:19:03;;;;;;;46.80;11.40;;;3.00;14.90;;;;;;5008106;28;20960;-66
2022/03/12 01:21:30;;;;;;;48.27;11.43;;;3.00;14.80;;;;;;5007848;28;20834;-66
2022/03/12 01:23:58;;;;;;;45.40;12.10;;;3.00;14.80;;;;;;5006245;28;20468;-65
2022/03/12 01:26:25;;;;;;;43.43;12.37;;;2.90;14.70;;;;;;5007859;28;20489;-66
2022/03/12 01:28:53;;;;;;;45.20;11.50;;;3.00;14.80;;;;;;5007204;28;20463;-65
2022/03/12 01:31:20;;;;;;;46.70;11.87;;;3.00;14.90;;;;;;5006900;28;20472;-66
2022/03/12 01:33:48;;;;;;;46.53;10.93;;;2.90;15.00;;;;;;5007484;28;20467;-66
2022/03/12 01:36:15;;;;;;;47.13;12.73;;;2.90;15.40;;;;;;5004233;28;20464;-66
2022/03/12 01:38:48;;;;;;;44.83;12.30;;;2.90;15.50;;;;;;5007191;28;20767;-66
2022/03/12 01:41:20;;;;;;;45.83;12.10;;;2.90;15.40;;;;;;5008023;28;20464;-66
2022/03/12 01:43:49;;;;;;;45.80;12.23;;;2.90;15.50;;;;;;5007571;28;20455;-66
2022/03/12 01:46:16;;;;;;;44.73;13.10;;;2.90;15.60;;;;;;5007073;28;20483;-66
2022/03/12 01:48:46;;;;;;;48.10;12.37;;;2.90;15.50;;;;;;5007698;28;20460;-65
2022/03/12 01:51:13;;;;;;;44.80;13.07;;;2.90;15.50;;;;;;5007174;28;20793;-66
2022/03/12 01:53:40;;;;;;;44.20;10.43;;;2.90;15.40;;;;;;5006800;28;20467;-65
2022/03/12 01:56:07;;;;;;;43.93;11.60;;;2.90;15.40;;;;;;5007372;28;20476;-65
2022/03/12 01:58:35;;;;;;;47.30;13.10;;;2.90;15.20;;;;;;5006692;28;20961;-65
2022/03/12 02:01:03;;;;;;;45.03;10.43;;;2.80;15.30;;;;;;5006970;28;20534;-65
2022/03/12 02:03:32;;;;;;;45.40;11.17;;;2.80;15.20;;;;;;5006687;28;20456;-66
2022/03/12 02:05:59;;;;;;;46.50;11.57;;;2.80;15.10;;;;;;5006993;28;20486;-66
2022/03/12 02:08:28;;;;;;;43.73;11.17;;;2.80;15.10;;;;;;5006214;28;20616;-66
2022/03/12 02:10:57;;;;;;;43.80;11.00;;;2.80;15.20;;;;;;5006974;28;20456;-65
2022/03/12 02:13:25;;;;;;;46.00;11.60;;;2.80;15.30;;;;;;5006834;28;20459;-66
2022/03/12 02:16:06;;;;;;;43.80;10.57;;;2.80;15.20;;;;;;5007002;28;20725;-66
2022/03/12 02:18:33;;;;;;;43.57;10.63;;;2.80;15.10;;;;;;5006948;28;20468;-66
2022/03/12 02:21:00;;;;;;;44.30;12.23;;;2.80;15.00;;;;;;5007881;28;20836;-65
2022/03/12 02:23:27;;;;;;;43.97;10.87;;;2.80;15.10;;;;;;5010327;28;20474;-66
2022/03/12 02:26:02;;;;;;;43.33;11.40;;;3.00;15.00;;;;;;5009501;28;20480;-66
2022/03/12 02:28:29;;;;;;;43.33;11.20;;;2.70;15.10;;;;;;5009919;28;20456;-65
2022/03/12 02:30:59;;;;;;;45.23;11.27;;;2.70;15.10;;;;;;5009150;28;20475;-66
2022/03/12 02:33:28;;;;;;;46.10;12.93;;;2.70;15.10;;;;;;5008115;28;20570;-65
2022/03/12 02:35:56;;;;;;;50.87;12.67;;;2.70;15.10;;;;;;5009985;28;20838;-66
2022/03/12 02:38:25;;;;;;;41.73;9.30;;;2.70;15.20;;;;;;5010399;28;20460;-66
2022/03/12 02:40:53;;;;;;;47.00;10.63;;;2.70;15.30;;;;;;5010042;28;20451;-66
2022/03/12 02:43:26;;;;;;;45.37;11.30;;;2.70;15.10;;;;;;5009843;28;20463;-65
2022/03/12 02:45:53;;;;;;;45.50;11.23;;;2.70;15.10;;;;;;5009008;28;20538;-65
2022/03/12 02:48:24;;;;;;;42.47;10.03;;;2.70;15.10;;;;;;5009527;28;20484;-65
2022/03/12 02:50:53;;;;;;;45.77;10.93;;;2.70;15.10;;;;;;5009797;28;20961;-65
2022/03/12 02:53:20;;;;;;;45.73;12.17;;;2.70;15.20;;;;;;5009681;28;20468;-65
2022/03/12 02:55:47;;;;;;;43.63;9.90;;;2.70;15.20;;;;;;5007699;28;20844;-65
2022/03/12 02:58:15;;;;;;;42.30;10.30;;;2.70;14.90;;;;;;5009859;28;20459;-65
2022/03/12 03:00:43;;;;;;;43.53;9.77;;;2.70;14.90;;;;;;5009446;28;20463;-65
2022/03/12 03:03:10;;;;;;;43.63;10.43;;;2.70;14.80;;;;;;5009549;28;20559;-65
2022/03/12 03:05:44;;;;;;;45.20;10.20;;;2.60;14.90;;;;;;5008764;28;20483;-65
2022/03/12 03:08:12;;;;;;;44.70;10.90;;;2.60;14.90;;;;;;5009585;28;20844;-65
2022/03/12 03:10:41;;;;;;;44.23;11.47;;;2.60;15.00;;;;;;5010011;28;20460;-65
2022/03/12 03:13:30;;;;;;;46.23;10.73;;;2.60;15.10;;;;;;5009536;28;20467;-65
2022/03/12 03:16:01;;;;;;;42.47;10.53;;;2.60;15.10;;;;;;5008168;28;20475;-66
2022/03/12 03:18:30;;;;;;;43.07;10.17;;;2.60;15.00;;;;;;5009994;28;20444;-65
2022/03/12 03:20:58;;;;;;;42.30;10.43;;;2.60;15.00;;;;;;5009649;28;20456;-66
2022/03/12 03:23:26;;;;;;;44.43;10.37;;;2.50;15.10;;;;;;5008344;28;20983;-65
2022/03/12 03:25:54;;;;;;;42.90;10.40;;;2.50;14.90;;;;;;5007065;28;21152;-65
2022/03/12 03:28:21;;;;;;;43.70;10.33;;;2.60;15.30;;;;;;5009280;28;20505;-65
2022/03/12 03:30:48;;;;;;;44.50;10.10;;;2.60;14.70;;;;;;5009544;28;20467;-65
2022/03/12 03:33:19;;;;;;;41.23;9.13;;;2.60;14.90;;;;;;5009285;28;20875;-65
2022/03/12 03:35:46;;;;;;;46.07;10.30;;;2.60;15.20;;;;;;5008968;28;20485;-65
2022/03/12 03:38:14;;;;;;;41.90;10.20;;;2.50;15.30;;;;;;5007691;28;20452;-65
2022/03/12 03:40:44;;;;;;;43.07;9.87;;;2.50;15.20;;;;;;5009575;28;20452;-65
2022/03/12 03:43:13;;;;;;;42.27;10.27;;;2.50;15.40;;;;;;5007936;28;20451;-65
2022/03/12 03:45:41;;;;;;;43.00;9.33;;;2.50;15.50;;;;;;5008519;28;21181;-66
2022/03/12 03:48:11;;;;;;;41.77;9.60;;;2.50;15.30;;;;;;5008848;28;20479;-66
2022/03/12 03:50:40;;;;;;;42.83;9.97;;;2.50;15.20;;;;;;5009055;28;20455;-65
2022/03/12 03:53:06;;;;;;;43.43;10.00;;;2.50;15.20;;;;;;5008370;28;20467;-65
2022/03/12 03:55:34;;;;;;;45.47;10.43;;;2.50;15.10;;;;;;5007428;28;20532;-66
2022/03/12 03:58:03;;;;;;;42.03;9.93;;;2.50;15.10;;;;;;5009210;28;20487;-65
2022/03/12 04:00:31;;;;;;;41.90;9.90;;;2.50;15.00;;;;;;5008095;28;20476;-65
2022/03/12 04:03:02;;;;;;;45.80;10.53;;;2.50;15.10;;;;;;5008382;28;20460;-65
2022/03/12 04:05:30;;;;;;;44.20;10.87;;;2.50;15.00;;;;;;5007921;28;21026;-65
2022/03/12 04:08:00;;;;;;;42.27;10.53;;;2.50;14.90;;;;;;5008456;28;20854;-65
2022/03/12 04:10:27;;;;;;;43.13;10.20;;;2.50;14.90;;;;;;5008599;28;20979;-65
2022/03/12 04:12:55;;;;;;;42.70;10.50;;;2.50;14.80;;;;;;5008166;28;20466;-65
2022/03/12 04:15:22;;;;;;;45.73;11.33;;;2.50;14.90;;;;;;5006806;28;20518;-65
2022/03/12 04:17:51;;;;;;;42.33;10.50;;;2.50;15.00;;;;;;5008627;28;20452;-65
2022/03/12 04:20:19;;;;;;;42.47;9.93;;;2.50;14.80;;;;;;5007982;28;21006;-65
2022/03/12 04:22:47;;;;;;;45.30;10.47;;;2.50;15.00;;;;;;5008222;28;20547;-65
2022/03/12 04:25:16;;;;;;;43.23;9.90;;;2.40;14.80;;;;;;5006550;28;20484;-65
2022/03/12 04:27:44;;;;;;;42.20;11.70;;;2.50;14.80;;;;;;4999980;28;20524;-65
2022/03/12 04:30:12;;;;;;;41.60;9.17;;;2.50;14.90;;;;;;4988440;28;20469;-65
2022/03/12 04:32:39;;;;;;;46.57;10.47;;;2.40;14.80;;;;;;4988041;28;20464;-65
2022/03/12 04:35:07;;;;;;;42.30;9.53;;;2.50;14.90;;;;;;4988508;28;20559;-65
2022/03/12 04:37:34;;;;;;;44.97;11.10;;;2.50;14.80;;;;;;4989692;28;20456;-65
2022/03/12 04:40:02;;;;;;;42.30;10.20;;;2.40;14.70;;;;;;5008381;28;20470;-65
2022/03/12 04:42:30;;;;;;;42.40;9.07;;;2.40;14.80;;;;;;5007738;28;20464;-65
2022/03/12 04:44:57;;;;;;;42.57;10.97;;;2.40;14.80;;;;;;5007383;28;20480;-65
2022/03/12 04:47:24;;;;;;;42.27;10.20;;;2.40;14.90;;;;;;5007436;28;20846;-65
2022/03/12 04:49:51;;;;;;;44.13;10.40;;;2.30;14.90;;;;;;5006658;28;20558;-65
2022/03/12 04:52:20;;;;;;;42.07;10.10;;;2.30;14.80;;;;;;5007523;28;20463;-65
2022/03/12 04:54:47;;;;;;;41.70;9.40;;;2.30;14.90;;;;;;5007733;28;20484;-65
2022/03/12 04:57:14;;;;;;;42.00;9.60;;;2.30;14.90;;;;;;5007586;28;20460;-65
2022/03/12 04:59:42;;;;;;;44.03;11.07;;;2.30;14.90;;;;;;5007210;28;20459;-65
2022/03/12 05:02:12;;;;;;;42.93;10.60;;;2.30;15.00;;;;;;5006701;28;20472;-65
2022/03/12 05:04:39;;;;;;;44.53;10.47;;;2.30;15.00;;;;;;5007551;28;21004;-65
2022/03/12 05:07:09;;;;;;;43.40;9.67;;;2.30;15.10;;;;;;5007527;28;20542;-65
2022/03/12 05:09:36;;;;;;;43.43;10.70;;;2.30;15.00;;;;;;4999342;28;20468;-65
2022/03/12 05:12:05;;;;;;;45.47;9.90;;;2.30;15.00;;;;;;4988316;28;20519;-65
2022/03/12 05:14:34;;;;;;;45.00;10.50;;;2.30;15.10;;;;;;4988468;28;20503;-65
2022/03/12 05:17:05;;;;;;;44.57;9.40;;;2.30;15.00;;;;;;4988725;28;20497;-65
2022/03/12 05:19:36;;;;;;;40.83;9.50;;;2.30;15.20;;;;;;4990245;28;20839;-65
2022/03/12 05:22:03;;;;;;;44.80;9.77;;;2.30;15.20;;;;;;5006910;28;20555;-65
2022/03/12 05:24:30;;;;;;;44.13;10.70;;;2.30;15.20;;;;;;5007089;28;20661;-65
2022/03/12 05:26:59;;;;;;;43.20;10.07;;;2.30;15.20;;;;;;5007793;28;20463;-65
2022/03/12 05:29:26;;;;;;;44.07;9.23;;;2.30;15.30;;;;;;5007487;28;20448;-65
2022/03/12 05:31:53;;;;;;;43.30;10.43;;;2.20;15.40;;;;;;5006058;28;20470;-65
2022/03/12 05:34:22;;;;;;;41.80;9.43;;;2.30;15.40;;;;;;5007697;28;20484;-65
2022/03/12 05:36:50;;;;;;;44.90;10.97;;;2.30;15.40;;;;;;5007605;28;20866;-65
2022/03/12 05:39:17;;;;;;;44.90;9.03;;;2.30;15.30;;;;;;5007440;28;20452;-65
2022/03/12 05:41:44;;;;;;;43.60;9.57;;;2.40;15.30;;;;;;5006913;28;20474;-65
2022/03/12 05:44:13;;;;;;;43.33;9.93;;;2.40;15.20;;;;;;5006897;28;20575;-65
2022/03/12 05:47:06;;;;;;;42.10;9.90;;;2.50;15.10;;;;;;5007614;28;20499;-65
2022/03/12 05:49:34;;;;;;;49.40;10.90;;;2.50;15.20;;;;;;5007548;28;20456;-65
2022/03/12 05:52:00;;;;;;;43.33;10.23;;;2.50;15.10;;;;;;5006599;28;20470;-65
2022/03/12 05:54:28;;;;;;;42.30;9.90;;;2.60;15.10;;;;;;5007281;28;20482;-65
2022/03/12 05:57:20;;;;;;;40.97;9.10;;;2.60;14.90;;;;;;5009276;28;20459;-65
2022/03/12 05:59:49;;;;;;;43.73;9.67;;;2.60;14.80;;;;;;5010848;28;20456;-65
2022/03/12 06:02:16;;;;;;;46.03;9.33;;;2.60;14.80;;;;;;5009231;28;20472;-65
2022/03/12 06:04:45;;;;;;;48.63;10.60;;;2.60;14.90;;;;;;5010705;28;20479;-65
2022/03/12 06:07:12;;;;;;;42.50;10.03;;;2.60;15.00;;;;;;5010555;28;20811;-65
2022/03/12 06:09:39;;;;;;;44.50;10.57;;;2.60;15.00;;;;;;5011052;28;21050;-65
2022/03/12 06:12:07;;;;;;;43.63;10.93;;;2.60;15.10;;;;;;5009221;28;20722;-65
2022/03/12 06:14:39;;;;;;;46.87;9.50;;;2.60;15.00;;;;;;5010745;28;20491;-66
2022/03/12 06:17:07;;;;;;;41.87;9.83;;;2.60;14.90;;;;;;5010833;28;20554;-65
2022/03/12 06:19:34;;;;;;;48.00;10.53;;;2.60;14.80;;;;;;5010716;28;20560;-65
2022/03/12 06:22:03;;;;;;;44.33;10.27;;;2.70;14.60;;;;;;5009594;28;20468;-65
2022/03/12 06:24:29;;;;;;;41.70;9.00;;;2.70;14.50;;;;;;5010471;28;20647;-65
2022/03/12 06:26:57;;;;;;;44.20;11.13;;;2.70;14.70;;;;;;5010929;28;20862;-65
2022/03/12 06:29:24;;;;;;;45.30;10.53;;;2.80;14.50;;;;;;5010748;28;20484;-65
2022/03/12 06:31:52;;;;;;;47.80;10.80;;;2.90;14.40;;;;;;5010139;28;20475;-65
2022/03/12 06:34:19;;;;;;;47.17;11.27;;;2.90;14.30;;;;;;5009465;28;20490;-65
2022/03/12 06:36:46;;;;;;;44.70;10.60;;;3.00;14.30;;;;;;5010657;28;20460;-66
2022/03/12 06:39:14;;;;;;;44.03;10.60;;;3.10;14.20;;;;;;5010216;28;20466;-65
2022/03/12 06:41:43;;;;;;;43.80;10.43;;;3.20;14.00;;;;;;5010741;28;21007;-65
2022/03/12 06:44:11;;;;;;;45.03;10.47;;;3.40;13.70;;;;;;5008261;28;21054;-64
2022/03/12 06:46:38;;;;;;;42.93;10.50;;;3.60;13.40;;;;;;5010489;28;20495;-65
2022/03/12 06:49:05;;;;;;;43.67;10.17;;;3.80;13.10;;;;;;5010024;28;20490;-64
2022/03/12 06:51:32;;;;;;;44.83;10.53;;;4.00;12.80;;;;;;5008130;28;20463;-60
2022/03/12 06:53:59;;;;;;;47.50;10.67;;;4.30;12.70;;;;;;5006470;28;20490;-59
2022/03/12 06:56:27;;;;;;;39.57;8.83;;;4.70;12.10;;;;;;5003583;28;20471;-61
2022/03/12 06:58:54;;;;;;;44.73;11.40;;;5.10;11.60;;;;;;5006342;28;20464;-60
2022/03/12 07:01:21;;;;;;;43.17;10.07;;;5.50;11.00;;;;;;5002255;28;20495;-60
2022/03/12 07:03:48;;;;;;;46.67;9.90;;;5.80;10.30;;;;;;4995970;28;20464;-67
2022/03/12 07:06:14;;;;;;;44.17;10.83;;;6.20;9.80;;;;;;4993421;28;20487;-67
2022/03/12 07:08:41;;;;;;;41.37;9.00;;;6.60;9.30;;;;;;5007874;28;20587;-67
2022/03/12 07:11:10;;;;;;;43.00;10.33;;;7.00;8.50;;;;;;5009079;28;20455;-67
2022/03/12 07:13:38;;;;;;;38.53;9.03;;;7.50;7.70;;;;;;4995769;28;20475;-68
2022/03/12 07:16:05;;;;;;;40.40;9.53;;;8.00;6.70;;;;;;4998639;28;20480;-68
2022/03/12 07:18:32;;;;;;;41.23;9.57;;;8.40;6.10;;;;;;5009296;28;20456;-68
2022/03/12 07:20:59;;;;;;;41.13;10.50;;;8.70;5.20;;;;;;5009852;28;20516;-68
2022/03/12 07:23:26;;;;;;;41.60;9.43;;;9.10;4.50;;;;;;5010336;28;20463;-68
2022/03/12 07:25:55;;;;;;;40.97;10.60;;;9.70;4.00;;;;;;5008323;28;21211;-68
2022/03/12 07:28:22;;;;;;;40.23;10.63;;;10.60;3.00;;;;;;5009663;28;21069;-68
2022/03/12 07:30:50;;;;;;;39.60;11.13;;;12.00;1.60;;;;;;5009109;28;20476;-68
2022/03/12 07:33:17;;;;;;;37.50;10.00;;;13.50;1.00;;;;;;5009416;28;20972;-68
2022/03/12 07:35:44;;;;;;;38.63;10.17;;;14.90;1.00;;;;;;5008604;28;20492;-68
2022/03/12 07:38:11;;;;;;;41.80;10.30;;;16.30;1.00;;;;;;5010415;28;20456;-69
2022/03/12 07:40:39;;;;;;;36.23;9.60;;;17.60;1.00;;;;;;5008414;28;20457;-69
2022/03/12 07:43:07;;;;;;;38.13;9.23;;;18.80;1.00;;;;;;4998788;28;20539;-69
2022/03/12 07:45:34;;;;;;;37.57;9.60;;;19.90;1.00;;;;;;5006149;28;20483;-67
2022/03/12 07:48:02;;;;;;;36.33;9.63;;;20.80;1.00;;;;;;5009477;28;20456;-69
2022/03/12 07:50:29;;;;;;;35.27;9.77;;;21.60;1.00;;;;;;4999158;28;20492;-68
2022/03/12 07:52:57;;;;;;;35.67;10.10;;;22.40;1.00;;;;;;5008503;28;20464;-69
2022/03/12 07:55:24;;;;;;;34.47;9.37;;;22.90;1.00;;;;;;5009350;28;20992;-67
2022/03/12 07:57:51;;;;;;;34.80;9.50;;;23.70;1.00;;;;;;5005453;28;20460;-69
2022/03/12 08:00:19;;;;;;;35.23;9.30;;;24.40;1.00;;;;;;5007906;28;20470;-70
2022/03/12 08:02:48;;;;;;;37.57;9.60;;;25.10;1.00;;;;;;5008373;28;20523;-69
2022/03/12 08:05:17;;;;;;;42.73;9.50;;;25.80;1.00;;;;;;5008473;28;20483;-66
2022/03/12 08:07:44;;;;;;;35.33;10.00;;;26.50;1.00;;;;;;5007309;28;20475;-68
2022/03/12 08:10:11;;;;;;;35.50;9.00;;;27.30;1.00;;;;;;5008287;28;20494;-69
2022/03/12 08:12:38;;;;;;;34.47;9.10;;;28.10;1.00;;;;;;5008554;28;20685;-68
2022/03/12 08:15:07;;;;;;;32.90;8.27;;;28.70;1.00;;;;;;5007678;28;20476;-67
2022/03/12 08:17:34;;;;;;;32.60;9.10;;;29.50;1.00;;;;;;5005769;28;20563;-70
2022/03/12 08:20:03;;;;;;;32.70;9.33;;;30.20;1.00;;;;;;5001325;28;20453;-68
2022/03/12 08:22:31;;;;;;;32.03;8.90;;;30.80;1.00;;;;;;5005404;28;20456;-69
2022/03/12 08:24:58;;;;;;;32.80;9.00;;;31.20;1.00;;;;;;5006926;28;20495;-68
2022/03/12 08:27:25;;;;;;;32.30;8.90;;;31.40;1.00;;;;;;5006149;28;20463;-68
2022/03/12 08:29:52;;;;;;;31.77;8.73;;;31.60;1.00;;;;;;5007171;28;20571;-68
2022/03/12 08:32:19;;;;;;;37.10;11.13;;;31.10;1.00;;;;;;5006671;28;20478;-67
2022/03/12 08:34:46;;;;;;;34.50;9.23;;;30.40;1.00;;;;;;5007882;28;20557;-67
2022/03/12 08:37:13;;;;;;;34.93;10.23;;;30.00;1.00;;;;;;5008502;28;20456;-67
2022/03/12 08:39:41;;;;;;;34.60;10.03;;;30.10;1.00;;;;;;5006745;28;20464;-68
2022/03/12 08:42:08;;;;;;;32.60;9.90;;;30.30;1.00;;;;;;5008079;28;20459;-68
2022/03/12 08:44:37;;;;;;;33.37;9.60;;;30.70;1.00;;;;;;5008645;28;20475;-68
2022/03/12 08:47:04;;;;;;;33.97;9.40;;;31.20;1.00;;;;;;5008154;28;20464;-67
2022/03/12 08:49:32;;;;;;;30.47;8.67;;;31.60;1.00;;;;;;5008422;28;20820;-67
2022/03/12 08:51:59;;;;;;;31.50;9.57;;;32.00;1.00;;;;;;5007074;28;20470;-67
2022/03/12 08:54:26;;;;;;;31.97;9.67;;;31.90;1.00;;;;;;5008107;28;20483;-70
2022/03/12 08:56:54;;;;;;;31.40;9.90;;;31.80;1.00;;;;;;5007018;28;20883;-69
2022/03/12 08:59:21;;;;;;;31.93;10.73;;;32.00;1.00;;;;;;5005211;28;20460;-68
2022/03/12 09:01:48;;;;;;;33.00;10.50;;;32.40;1.00;;;;;;5002661;28;20775;-68
2022/03/12 09:04:17;;;;;;;31.70;10.77;;;32.60;1.00;;;;;;5008677;28;20482;-67
2022/03/12 09:06:44;;;;;;;32.10;9.40;;;32.80;1.00;;;;;;5008607;28;20903;-68
2022/03/12 09:09:12;;;;;;;33.70;11.00;;;33.00;1.00;;;;;;5006881;28;20486;-68
2022/03/12 09:11:39;;;;;;;31.07;9.70;;;33.30;1.00;;;;;;5006354;28;20830;-68
2022/03/12 09:14:07;;;;;;;31.43;10.23;;;33.60;1.00;;;;;;5006831;28;20448;-70
2022/03/12 09:16:36;;;;;;;31.37;9.53;;;33.70;1.00;;;;;;5008304;28;20466;-68
2022/03/12 09:19:02;;;;;;;30.77;9.30;;;33.80;1.00;;;;;;5007762;28;20972;-67
2022/03/12 09:21:29;;;;;;;33.43;10.70;;;33.60;1.00;;;;;;5005722;28;20484;-68
2022/03/12 09:23:56;;;;;;;31.43;9.90;;;33.70;1.00;;;;;;5006836;28;20452;-70
2022/03/12 09:26:23;;;;;;;31.47;9.30;;;34.00;1.00;;;;;;5006887;28;20456;-69
2022/03/12 09:28:50;;;;;;;30.00;8.70;;;34.20;1.00;;;;;;5006986;28;20484;-69
2022/03/12 09:31:18;;;;;;;33.33;10.20;;;34.50;1.00;;;;;;5009454;28;20844;-69
2022/03/12 09:33:45;;;;;;;37.57;10.27;;;34.80;1.00;;;;;;5009976;28;20844;-69
2022/03/12 09:36:11;;;;;;;30.93;8.93;;;35.00;1.00;;;;;;5011497;28;20479;-69
2022/03/12 09:38:39;;;;;;;34.90;10.20;;;35.40;1.00;;;;;;5010428;28;20452;-69
2022/03/12 09:41:06;;;;;;;29.83;9.30;;;35.50;1.00;;;;;;5010357;28;20499;-69
2022/03/12 09:43:34;;;;;;;33.37;10.50;;;35.60;1.00;;;;;;5008522;28;20463;-69
2022/03/12 09:46:00;;;;;;;31.07;10.10;;;35.90;1.00;;;;;;5009471;28;20491;-69
2022/03/12 09:48:29;;;;;;;32.70;10.20;;;36.40;1.00;;;;;;5010202;28;20463;-69
2022/03/12 09:50:56;;;;;;;31.23;10.30;;;36.60;1.00;;;;;;5002522;28;20456;-69
2022/03/12 09:53:23;;;;;;;31.03;9.53;;;37.00;1.00;;;;;;4997065;28;20545;-69
2022/03/12 09:55:50;;;;;;;31.17;10.53;;;37.40;1.00;;;;;;5010456;28;20476;-69
2022/03/12 09:58:17;;;;;;;29.90;9.70;;;37.50;1.00;;;;;;5006313;28;20556;-69
2022/03/12 10:00:44;;;;;;;30.67;9.67;;;37.20;1.00;;;;;;5014080;28;21196;-69
2022/03/12 10:03:11;;;;;;;31.90;10.90;;;37.20;1.00;;;;;;5006133;28;20471;-69
2022/03/12 10:05:40;;;;;;;31.77;10.57;;;37.30;1.00;;;;;;5008547;28;20491;-69
2022/03/12 10:08:07;;;;;;;29.43;10.10;;;37.40;1.00;;;;;;5005737;28;20890;-69
2022/03/12 10:10:34;;;;;;;30.03;10.33;;;37.40;1.00;;;;;;5005504;28;20485;-69
2022/03/12 10:13:03;;;;;;;30.40;11.00;;;37.90;1.00;;;;;;5004019;28;20464;-69
2022/03/12 10:15:30;;;;;;;29.80;10.57;;;38.30;1.00;;;;;;5004373;28;20569;-69
2022/03/12 10:17:57;;;;;;;30.97;10.50;;;38.60;1.00;;;;;;5004602;28;20457;-69
2022/03/12 10:20:24;;;;;;;30.30;10.67;;;38.90;1.00;;;;;;5007695;28;20471;-69
2022/03/12 10:22:54;;;;;;;29.93;10.77;;;39.10;1.00;;;;;;5006761;28;20478;-69
2022/03/12 10:25:21;;;;;;;30.20;11.27;;;39.30;1.00;;;;;;5007994;28;20479;-69
2022/03/12 10:27:48;;;;;;;31.03;11.30;;;39.40;1.00;;;;;;5007752;28;20546;-69
2022/03/12 10:30:14;;;;;;;29.90;11.10;;;39.40;1.00;;;;;;5007400;28;20916;-70
2022/03/12 10:32:44;;;;;;;33.40;12.20;;;39.30;1.00;;;;;;5007707;28;21030;-69
2022/03/12 10:35:12;;;;;;;31.20;11.40;;;39.20;1.00;;;;;;5006516;28;20491;-69
2022/03/12 10:37:40;;;;;;;32.53;10.67;;;39.00;1.00;;;;;;5008772;28;20523;-70
2022/03/12 10:40:10;;;;;;;31.73;10.83;;;38.80;1.00;;;;;;5006165;28;20483;-70
2022/03/12 10:42:46;;;;;;;32.07;11.97;;;38.50;1.00;;;;;;5006477;28;20467;-70
2022/03/12 10:45:15;;;;;;;33.67;11.80;;;38.60;1.00;;;;;;5005909;28;20506;-70
2022/03/12 10:47:44;;;;;;;32.13;10.90;;;38.50;1.00;;;;;;5009751;28;20478;-69
2022/03/12 10:50:15;;;;;;;29.90;11.07;;;38.50;1.00;;;;;;5006637;28;20487;-70
2022/03/12 10:52:47;;;;;;;31.70;10.37;;;38.40;1.00;;;;;;5010052;28;20460;-70
2022/03/12 10:55:18;;;;;;;34.33;11.87;;;38.20;1.00;;;;;;5006870;28;20595;-69
2022/03/12 10:58:06;;;;;;;30.87;11.60;;;38.20;1.00;;;;;;5010482;28;20774;-69
2022/03/12 11:00:38;;;;;;;31.77;11.03;;;37.90;1.00;;;;;;5008282;28;20539;-69
2022/03/12 11:03:08;;;;;;;43.33;13.00;;;37.60;1.00;;;;;;5009858;28;20983;-69
2022/03/12 11:05:36;;;;;;;36.03;14.00;;;37.60;1.00;;;;;;5009012;28;20475;-70
2022/03/12 11:08:16;;;;;;;36.73;13.27;;;37.20;1.00;;;;;;5009533;28;20456;-70
2022/03/12 11:10:51;;;;;;;34.00;12.17;;;36.90;1.00;;;;;;5009663;28;20483;-69
2022/03/12 11:13:37;;;;;;;32.37;12.50;;;36.80;1.00;;;;;;5009152;28;20522;-70
2022/03/12 11:16:12;;;;;;;32.87;13.20;;;36.70;1.00;;;;;;5005708;28;20543;-71
2022/03/12 11:18:41;;;;;;;38.10;11.57;;;36.10;1.00;;;;;;4989622;28;20464;-70
2022/03/12 11:21:07;;;;;;;39.57;13.37;;;35.90;1.00;;;;;;4989329;28;20848;-70
2022/03/12 11:23:34;;;;;;;33.97;12.70;;;35.80;1.00;;;;;;4989677;28;20461;-70
2022/03/12 11:26:09;;;;;;;35.20;11.80;;;35.50;1.00;;;;;;4989735;28;20484;-70
2022/03/12 11:28:37;;;;;;;32.77;12.60;;;35.20;1.00;;;;;;5007761;28;20456;-70
2022/03/12 11:31:07;;;;;;;36.37;13.30;;;35.00;1.00;;;;;;5006502;28;20480;-70
2022/03/12 11:33:35;;;;;;;35.03;13.93;;;34.80;1.00;;;;;;5008468;28;20483;-70
2022/03/12 11:36:09;;;;;;;36.10;13.13;;;34.30;1.00;;;;;;5008530;28;21066;-70
2022/03/12 11:38:36;;;;;;;35.20;13.90;;;33.80;1.00;;;;;;5007806;28;20459;-70
2022/03/12 11:41:05;;;;;;;34.23;12.80;;;33.00;1.00;;;;;;5009199;28;20479;-71
2022/03/12 11:43:39;;;;;;;36.90;14.90;;;32.20;1.00;;;;;;5008415;28;20460;-70
2022/03/12 11:46:08;;;;;;;35.90;15.27;;;31.50;1.00;;;;;;5009566;28;20487;-70
2022/03/12 11:48:37;;;;;;;40.77;15.10;;;30.50;1.00;;;;;;5008084;28;20460;-70
2022/03/12 11:51:17;;;;;;;38.60;13.67;;;29.70;1.00;;;;;;5008671;28;20489;-70
2022/03/12 11:53:45;;;;;;;40.57;13.70;;;29.10;1.00;;;;;;5008692;28;20467;-69
2022/03/12 11:56:13;;;;;;;40.30;16.00;;;28.70;1.00;;;;;;5007151;28;20488;-69
2022/03/12 11:58:42;;;;;;;44.23;20.63;;;28.60;1.00;;;;;;5008431;28;20486;-70
2022/03/12 12:01:11;;;;;;;41.83;18.83;;;28.30;1.00;;;;;;5007869;28;20523;-70
2022/03/12 12:07:01;;;;;;;37.83;13.17;;;27.60;1.00;;;;;;5007041;28;20470;-70
2022/03/12 12:09:30;;;;;;;38.80;13.53;;;26.70;1.00;;;;;;5008477;28;20514;-70
2022/03/12 12:11:57;;;;;;;39.03;14.57;;;25.80;1.00;;;;;;5007118;28;20484;-70
2022/03/12 12:14:25;;;;;;;38.10;15.07;;;25.10;1.00;;;;;;5007901;28;20502;-68
2022/03/12 12:16:58;;;;;;;37.57;13.00;;;24.70;1.00;;;;;;5008561;28;21051;-70
2022/03/12 12:19:25;;;;;;;42.53;14.73;;;24.40;1.00;;;;;;5006339;28;20456;-70
2022/03/12 12:21:52;;;;;;;40.93;16.10;;;23.90;1.00;;;;;;5000792;28;20460;-69
2022/03/12 12:24:30;;;;;;;40.07;15.50;;;23.20;1.00;;;;;;5005080;28;20480;-69
2022/03/12 12:27:02;;;;;;;42.77;16.53;;;22.30;1.00;;;;;;5008338;28;20521;-69
2022/03/12 12:29:46;;;;;;;41.20;14.83;;;21.60;1.00;;;;;;5006872;28;20469;-69
2022/03/12 12:32:14;;;;;;;43.63;16.67;;;20.90;1.00;;;;;;5007648;28;20475;-69
2022/03/12 12:35:02;;;;;;;43.57;15.53;;;20.40;1.00;;;;;;5007476;28;21020;-69
2022/03/12 12:37:43;;;;;;;41.80;15.80;;;19.90;1.00;;;;;;4990873;28;20502;-69
2022/03/12 12:40:17;;;;;;;41.70;16.60;;;19.40;1.00;;;;;;4994573;28;20468;-69
2022/03/12 12:42:45;;;;;;;45.60;16.30;;;18.90;1.00;;;;;;4998119;28;20459;-69
2022/03/12 12:45:15;;;;;;;42.03;15.70;;;18.40;1.00;;;;;;4994114;28;20480;-69
2022/03/12 12:47:42;;;;;;;56.93;21.70;;;18.20;1.00;;;;;;4994023;28;20459;-68
2022/03/12 12:50:20;;;;;;;44.97;16.80;;;18.00;1.00;;;;;;5006764;28;20495;-68